createdAt,value
2022-08-17T00:01:04.244Z,17.10
2022-08-17T00:03:15.166Z,20.47
2022-08-17T00:05:26.206Z,19.40
2022-08-17T00:07:36.660Z,20.03
2022-08-17T00:09:45.436Z,20.87
2022-08-17T00:12:34.983Z,17.83
2022-08-17T00:14:23.703Z,19.83
2022-08-17T00:16:57.474Z,18.83
2022-08-17T00:19:08.288Z,17.40
2022-08-17T00:21:23.814Z,17.83
2022-08-17T00:23:36.934Z,18.60
2022-08-17T00:25:46.984Z,17.70
2022-08-17T00:27:56.169Z,22.33
2022-08-17T00:30:08.420Z,18.63
2022-08-17T00:33:14.624Z,21.47
2022-08-17T00:34:46.511Z,17.33
2022-08-17T00:36:55.405Z,16.60
2022-08-17T00:39:06.303Z,18.57
2022-08-17T00:41:17.718Z,22.50
2022-08-17T00:43:29.406Z,21.60
2022-08-17T00:45:38.512Z,17.80
2022-08-17T00:47:47.444Z,20.13
2022-08-17T00:49:56.128Z,19.37
2022-08-17T00:52:11.702Z,19.17
2022-08-17T00:54:24.623Z,20.40
2022-08-17T00:56:35.615Z,18.27
2022-08-17T00:58:44.682Z,17.53
2022-08-17T01:00:53.653Z,19.00
2022-08-17T01:03:03.636Z,19.30
2022-08-17T01:05:18.456Z,24.20
2022-08-17T01:07:28.725Z,18.73
2022-08-17T01:09:39.584Z,19.70
2022-08-17T01:11:52.627Z,22.90
2022-08-17T01:14:01.816Z,19.97
2022-08-17T01:16:17.238Z,19.93
2022-08-17T01:18:27.135Z,19.93
2022-08-17T01:20:48.129Z,20.80
2022-08-17T01:22:58.884Z,19.13
2022-08-17T01:25:10.494Z,20.03
2022-08-17T01:27:20.687Z,19.67
2022-08-17T01:29:31.212Z,18.97
2022-08-17T01:31:42.550Z,19.47
2022-08-17T01:33:51.341Z,24.60
2022-08-17T01:36:00.810Z,19.30
2022-08-17T01:38:11.427Z,21.73
2022-08-17T01:40:23.865Z,19.70
2022-08-17T01:42:35.134Z,23.90
2022-08-17T01:44:43.991Z,18.90
2022-08-17T01:46:53.222Z,18.60
2022-08-17T01:49:02.799Z,22.03
2022-08-17T01:51:11.794Z,18.60
2022-08-17T01:53:24.058Z,19.03
2022-08-17T01:55:34.631Z,18.83
2022-08-17T01:57:45.742Z,20.97
2022-08-17T01:59:54.674Z,20.50
2022-08-17T02:02:04.895Z,22.43
2022-08-17T02:04:14.342Z,20.90
2022-08-17T02:06:27.884Z,19.57
2022-08-17T02:09:01.957Z,20.43
2022-08-17T02:11:11.958Z,22.27
2022-08-17T02:13:21.411Z,19.73
2022-08-17T02:15:30.293Z,23.97
2022-08-17T02:17:40.666Z,22.97
2022-08-17T02:19:49.243Z,19.33
2022-08-17T02:21:57.851Z,21.67
2022-08-17T02:24:09.141Z,22.33
2022-08-17T02:26:24.026Z,21.60
2022-08-17T02:28:35.187Z,20.57
2022-08-17T02:30:59.722Z,19.80
2022-08-17T02:33:11.899Z,22.07
2022-08-17T02:35:22.650Z,22.47
2022-08-17T02:37:32.064Z,19.67
2022-08-17T02:39:42.780Z,20.40
2022-08-17T02:41:51.570Z,22.47
2022-08-17T02:44:00.361Z,23.47
2022-08-17T02:46:09.200Z,21.80
2022-08-17T02:48:30.884Z,20.20
2022-08-17T02:50:40.483Z,22.00
2022-08-17T02:53:01.473Z,20.13
2022-08-17T02:55:14.272Z,23.80
2022-08-17T02:57:23.320Z,22.37
2022-08-17T02:59:33.153Z,20.77
2022-08-17T03:01:42.212Z,25.60
2022-08-17T03:03:51.769Z,22.57
2022-08-17T03:06:00.508Z,19.97
2022-08-17T03:08:12.940Z,21.33
2022-08-17T03:10:25.164Z,20.43
2022-08-17T03:12:35.138Z,23.33
2022-08-17T03:14:44.927Z,22.03
2022-08-17T03:16:53.844Z,19.83
2022-08-17T03:19:03.254Z,19.03
2022-08-17T03:21:13.906Z,21.40
2022-08-17T03:23:24.187Z,22.00
2022-08-17T03:25:39.534Z,23.97
2022-08-17T03:27:48.374Z,24.97
2022-08-17T03:30:00.574Z,20.53
2022-08-17T03:32:13.350Z,22.33
2022-08-17T03:34:22.503Z,22.80
2022-08-17T03:36:31.571Z,22.90
2022-08-17T03:38:45.095Z,23.77
2022-08-17T03:40:59.489Z,23.37
2022-08-17T03:43:10.839Z,21.80
2022-08-17T03:45:41.508Z,21.10
2022-08-17T03:48:08.855Z,19.97
2022-08-17T03:50:35.888Z,21.30
2022-08-17T03:53:02.267Z,22.10
2022-08-17T03:55:32.923Z,23.93
2022-08-17T03:57:46.765Z,23.50
2022-08-17T03:59:55.786Z,22.87
2022-08-17T04:02:10.568Z,23.90
2022-08-17T04:04:19.411Z,26.90
2022-08-17T04:06:36.552Z,24.87
2022-08-17T04:08:45.681Z,24.97
2022-08-17T04:10:54.913Z,25.13
2022-08-17T04:13:05.856Z,26.33
2022-08-17T04:15:15.193Z,24.67
2022-08-17T04:17:25.071Z,25.23
2022-08-17T04:19:34.027Z,24.90
2022-08-17T04:21:42.847Z,25.87
2022-08-17T04:23:51.584Z,28.03
2022-08-17T04:26:00.854Z,24.43
2022-08-17T04:28:16.047Z,24.47
2022-08-17T04:30:25.435Z,23.90
2022-08-17T04:33:04.734Z,24.97
2022-08-17T04:35:03.547Z,23.07
2022-08-17T04:37:12.226Z,27.70
2022-08-17T04:39:21.497Z,24.77
2022-08-17T04:41:47.815Z,24.80
2022-08-17T04:43:58.747Z,24.87
2022-08-17T04:46:08.831Z,24.53
2022-08-17T04:48:17.586Z,26.27
2022-08-17T04:50:26.655Z,23.07
2022-08-17T04:52:47.217Z,23.87
2022-08-17T04:54:55.912Z,24.40
2022-08-17T04:57:04.846Z,24.93
2022-08-17T04:59:16.427Z,26.53
2022-08-17T05:01:26.608Z,25.90
2022-08-17T05:03:35.686Z,25.13
2022-08-17T05:05:49.908Z,25.20
2022-08-17T05:07:59.725Z,26.40
2022-08-17T05:10:09.163Z,25.57
2022-08-17T05:12:18.436Z,26.03
2022-08-17T05:14:33.461Z,26.00
2022-08-17T05:16:42.808Z,26.50
2022-08-17T05:18:52.539Z,27.47
2022-08-17T05:21:01.806Z,26.33
2022-08-17T05:23:12.286Z,26.37
2022-08-17T05:25:23.940Z,29.37
2022-08-17T05:27:36.042Z,30.70
2022-08-17T05:29:46.520Z,26.07
2022-08-17T05:31:55.647Z,26.60
2022-08-17T05:34:04.461Z,27.13
2022-08-17T05:36:42.798Z,26.00
2022-08-17T05:38:44.011Z,27.90
2022-08-17T05:40:52.710Z,27.60
2022-08-17T05:43:09.272Z,27.40
2022-08-17T05:45:55.931Z,31.47
2022-08-17T05:47:53.812Z,25.87
2022-08-17T05:50:04.052Z,26.73
2022-08-17T05:52:23.711Z,29.23
2022-08-17T05:54:39.771Z,26.10
2022-08-17T05:56:57.639Z,27.97
2022-08-17T05:59:11.584Z,26.90
2022-08-17T06:01:27.751Z,25.97
2022-08-17T06:03:42.265Z,26.57
2022-08-17T06:05:54.988Z,26.40
2022-08-17T06:08:11.243Z,26.50
2022-08-17T06:10:22.904Z,29.37
2022-08-17T06:12:38.664Z,27.07
2022-08-17T06:14:55.602Z,27.00
2022-08-17T06:17:10.413Z,27.90
2022-08-17T06:19:22.122Z,24.43
2022-08-17T06:21:35.298Z,26.03
2022-08-17T06:23:45.585Z,25.87
2022-08-17T06:25:55.853Z,24.77
2022-08-17T06:28:05.966Z,24.50
2022-08-17T06:30:16.101Z,24.90
2022-08-17T06:32:26.848Z,26.23
2022-08-17T06:34:35.524Z,24.37
2022-08-17T06:36:50.898Z,24.77
2022-08-17T06:39:06.011Z,24.97
2022-08-17T06:41:20.099Z,24.47
2022-08-17T06:43:33.859Z,23.40
2022-08-17T06:45:49.613Z,24.33
2022-08-17T06:48:03.683Z,23.13
2022-08-17T06:50:16.616Z,23.67
2022-08-17T06:52:45.683Z,24.30
2022-08-17T06:54:59.646Z,22.80
2022-08-17T06:57:15.001Z,24.00
2022-08-17T06:59:26.436Z,23.77
2022-08-17T07:01:56.854Z,22.50
2022-08-17T07:04:11.551Z,22.33
2022-08-17T07:06:21.654Z,23.07
2022-08-17T07:08:35.350Z,22.43
2022-08-17T07:10:47.019Z,22.23
2022-08-17T07:12:57.433Z,22.33
2022-08-17T07:15:10.887Z,23.13
2022-08-17T07:17:20.899Z,23.37
2022-08-17T07:19:34.007Z,22.30
2022-08-17T07:21:47.298Z,23.47
2022-08-17T07:24:05.466Z,22.83
2022-08-17T07:26:16.664Z,22.43
2022-08-17T07:28:25.763Z,21.83
2022-08-17T07:30:45.865Z,24.43
2022-08-17T07:32:58.879Z,22.43
2022-08-17T07:35:17.481Z,23.80
2022-08-17T07:37:32.478Z,23.37
2022-08-17T07:40:15.515Z,22.40
2022-08-17T07:42:12.789Z,22.67
2022-08-17T07:44:21.659Z,22.07
2022-08-17T07:46:51.267Z,23.07
2022-08-17T07:49:18.155Z,22.00
2022-08-17T07:51:30.013Z,24.93
2022-08-17T07:53:39.256Z,22.47
2022-08-17T07:55:49.002Z,21.60
2022-08-17T07:57:58.973Z,21.47
2022-08-17T08:00:16.981Z,20.17
2022-08-17T08:02:33.720Z,20.67
2022-08-17T08:04:59.726Z,20.23
2022-08-17T08:07:27.423Z,21.03
2022-08-17T08:09:41.182Z,20.43
2022-08-17T08:11:49.871Z,20.17
2022-08-17T08:14:18.868Z,21.40
2022-08-17T08:16:29.711Z,19.90
2022-08-17T08:18:55.302Z,19.73
2022-08-17T08:21:09.723Z,20.17
2022-08-17T08:23:22.302Z,21.17
2022-08-17T08:25:40.014Z,19.90
2022-08-17T08:27:57.428Z,18.83
2022-08-17T08:30:08.946Z,19.63
2022-08-17T08:32:23.848Z,19.77
2022-08-17T08:35:00.688Z,20.07
2022-08-17T08:37:19.129Z,18.67
2022-08-17T08:39:38.966Z,18.37
2022-08-17T08:41:53.374Z,18.53
2022-08-17T08:44:07.313Z,18.27
2022-08-17T08:46:24.175Z,17.77
2022-08-17T08:48:53.068Z,17.33
2022-08-17T08:51:11.978Z,18.40
2022-08-17T08:53:28.389Z,19.40
2022-08-17T08:55:47.180Z,17.57
2022-08-17T08:57:58.208Z,17.50
2022-08-17T09:00:12.976Z,17.37
2022-08-17T09:02:34.873Z,17.47
2022-08-17T09:05:13.421Z,16.27
2022-08-17T09:07:27.126Z,16.17
2022-08-17T09:09:40.972Z,16.60
2022-08-17T09:12:01.511Z,16.47
2022-08-17T09:14:21.219Z,16.07
2022-08-17T09:16:35.085Z,16.70
2022-08-17T09:19:02.609Z,17.87
2022-08-17T09:21:18.288Z,15.20
2022-08-17T09:23:33.995Z,15.30
2022-08-17T09:25:49.956Z,15.50
2022-08-17T09:28:03.867Z,15.37
2022-08-17T09:30:14.553Z,13.47
2022-08-17T09:32:27.445Z,14.27
2022-08-17T09:34:39.830Z,15.40
2022-08-17T09:36:54.635Z,15.17
2022-08-17T09:39:04.789Z,16.67
2022-08-17T09:41:18.683Z,17.70
2022-08-17T09:43:37.497Z,16.40
2022-08-17T09:45:50.807Z,16.60
2022-08-17T09:48:05.031Z,15.50
2022-08-17T09:50:17.179Z,16.17
2022-08-17T09:52:26.805Z,16.47
2022-08-17T09:54:40.180Z,17.30
2022-08-17T09:57:11.893Z,16.93
2022-08-17T09:59:34.233Z,16.73
2022-08-17T10:01:51.629Z,16.70
2022-08-17T10:04:09.040Z,18.17
2022-08-17T10:06:23.130Z,16.20
2022-08-17T10:08:37.234Z,16.50
2022-08-17T10:10:52.377Z,16.50
2022-08-17T10:13:09.512Z,15.97
2022-08-17T10:15:27.654Z,13.40
2022-08-17T10:17:40.742Z,14.67
2022-08-17T10:19:55.480Z,16.90
2022-08-17T10:22:34.522Z,15.67
2022-08-17T10:25:22.793Z,17.20
2022-08-17T10:27:36.406Z,15.33
2022-08-17T10:29:49.932Z,15.97
2022-08-17T10:32:05.171Z,15.27
2022-08-17T10:34:23.059Z,14.87
2022-08-17T10:36:38.662Z,14.80
2022-08-17T10:38:48.331Z,14.27
2022-08-17T10:41:00.307Z,14.23
2022-08-17T10:43:20.333Z,13.87
2022-08-17T10:45:36.406Z,14.20
2022-08-17T10:48:23.487Z,18.13
2022-08-17T10:50:48.187Z,13.97
2022-08-17T10:52:57.262Z,13.73
2022-08-17T10:55:14.211Z,13.77
2022-08-17T10:57:36.659Z,13.33
2022-08-17T10:59:56.036Z,14.07
2022-08-17T11:02:15.995Z,14.10
2022-08-17T11:04:29.214Z,13.90
2022-08-17T11:07:02.114Z,13.83
2022-08-17T11:09:27.637Z,14.10
2022-08-17T11:11:54.521Z,14.43
2022-08-17T11:14:14.055Z,13.90
2022-08-17T11:16:30.950Z,14.47
2022-08-17T11:18:55.114Z,13.57
2022-08-17T11:21:25.483Z,14.50
2022-08-17T11:23:45.652Z,13.53
2022-08-17T11:25:55.728Z,14.97
2022-08-17T11:28:09.538Z,14.53
2022-08-17T11:30:39.525Z,14.17
2022-08-17T11:32:54.583Z,14.90
2022-08-17T11:35:31.184Z,14.80
2022-08-17T11:37:47.783Z,13.87
2022-08-17T11:40:11.665Z,14.60
2022-08-17T11:42:29.728Z,14.17
2022-08-17T11:44:44.356Z,13.83
2022-08-17T11:47:15.418Z,13.73
2022-08-17T11:49:45.150Z,13.77
2022-08-17T11:52:11.772Z,13.70
2022-08-17T11:54:37.173Z,13.67
2022-08-17T11:56:48.905Z,13.70
2022-08-17T11:58:58.716Z,14.07
2022-08-17T12:01:07.883Z,15.17
2022-08-17T12:03:27.760Z,14.27
2022-08-17T12:05:36.799Z,13.03
2022-08-17T12:07:47.754Z,10.63
2022-08-17T12:09:57.494Z,13.27
2022-08-17T12:12:14.198Z,11.33
2022-08-17T12:14:44.990Z,13.07
2022-08-17T12:17:02.686Z,9.93
2022-08-17T12:19:20.126Z,10.40
2022-08-17T12:21:38.028Z,10.20
2022-08-17T12:23:52.559Z,9.87
2022-08-17T12:26:05.049Z,8.80
2022-08-17T12:28:23.207Z,9.60
2022-08-17T12:30:32.878Z,9.40
2022-08-17T12:32:42.835Z,9.77
2022-08-17T12:34:52.683Z,10.80
2022-08-17T12:37:03.344Z,10.03
2022-08-17T12:39:14.866Z,10.43
2022-08-17T12:41:39.168Z,9.90
2022-08-17T12:44:02.704Z,11.10
2022-08-17T12:46:19.431Z,10.37
2022-08-17T12:48:29.193Z,9.50
2022-08-17T12:50:38.844Z,11.17
2022-08-17T12:52:48.040Z,8.77
2022-08-17T12:54:59.693Z,9.07
2022-08-17T12:57:13.779Z,9.13
2022-08-17T12:59:29.969Z,10.10
2022-08-17T13:01:43.219Z,9.63
2022-08-17T13:03:53.167Z,9.67
2022-08-17T13:06:02.867Z,10.10
2022-08-17T13:08:16.704Z,9.53
2022-08-17T13:10:32.453Z,9.80
2022-08-17T13:12:41.650Z,9.10
2022-08-17T13:14:52.238Z,8.80
2022-08-17T13:17:06.327Z,9.63
2022-08-17T13:19:39.685Z,10.30
2022-08-17T13:21:50.826Z,9.97
2022-08-17T13:24:00.651Z,9.50
2022-08-17T13:26:11.871Z,9.90
2022-08-17T13:28:30.654Z,11.90
2022-08-17T13:30:47.911Z,10.70
2022-08-17T13:32:59.688Z,11.23
2022-08-17T13:35:38.986Z,10.07
2022-08-17T13:37:58.597Z,10.67
2022-08-17T13:40:22.476Z,10.47
2022-08-17T13:42:32.405Z,10.67
2022-08-17T13:44:41.746Z,11.30
2022-08-17T13:46:57.086Z,11.07
2022-08-17T13:49:08.013Z,10.90
2022-08-17T13:51:27.875Z,11.07
2022-08-17T13:53:54.184Z,11.37
2022-08-17T13:56:04.265Z,12.73
2022-08-17T13:58:13.282Z,11.67
2022-08-17T14:00:30.972Z,11.30
2022-08-17T14:02:41.669Z,11.90
2022-08-17T14:04:50.452Z,12.50
2022-08-17T14:07:03.064Z,10.80
2022-08-17T14:09:12.431Z,11.07
2022-08-17T14:11:24.289Z,10.87
2022-08-17T14:13:33.026Z,11.03
2022-08-17T14:15:56.090Z,10.83
2022-08-17T14:18:08.903Z,10.63
2022-08-17T14:20:22.453Z,10.23
2022-08-17T14:22:32.248Z,10.20
2022-08-17T14:24:44.888Z,10.97
2022-08-17T14:26:54.369Z,13.00
2022-08-17T14:29:15.069Z,10.77
2022-08-17T14:31:25.178Z,11.53
2022-08-17T14:33:36.293Z,16.87
2022-08-17T14:35:45.783Z,15.47
2022-08-17T14:37:55.802Z,19.80
2022-08-17T14:40:07.243Z,19.93
2022-08-17T14:42:16.511Z,19.40
2022-08-17T14:44:25.894Z,22.03
2022-08-17T14:46:35.288Z,18.63
2022-08-17T14:48:46.809Z,16.40
2022-08-17T14:50:56.738Z,21.27
2022-08-17T14:53:06.516Z,18.40
2022-08-17T14:55:18.430Z,19.27
2022-08-17T14:57:34.089Z,16.93
2022-08-17T14:59:43.255Z,12.33
2022-08-17T15:01:52.813Z,11.60
2022-08-17T15:04:04.177Z,12.73
2022-08-17T15:06:18.332Z,13.20
2022-08-17T15:08:26.904Z,13.77
2022-08-17T15:10:36.071Z,13.57
2022-08-17T15:12:44.593Z,14.10
2022-08-17T15:14:53.089Z,14.53
2022-08-17T15:17:01.568Z,17.13
2022-08-17T15:19:11.534Z,14.93
2022-08-17T15:21:20.188Z,14.43
2022-08-17T15:23:28.722Z,14.90
2022-08-17T15:25:37.424Z,15.90
2022-08-17T15:27:49.088Z,14.63
2022-08-17T15:29:58.005Z,17.23
2022-08-17T15:32:06.703Z,16.83
2022-08-17T15:34:20.961Z,15.73
2022-08-17T15:36:29.580Z,15.70
2022-08-17T15:38:40.384Z,15.97
2022-08-17T15:40:49.869Z,16.67
2022-08-17T15:42:59.177Z,17.10
2022-08-17T15:45:08.499Z,14.93
2022-08-17T15:47:17.870Z,15.07
2022-08-17T15:49:30.287Z,15.10
2022-08-17T15:51:38.832Z,13.27
2022-08-17T15:53:48.297Z,13.50
2022-08-17T15:55:56.757Z,12.43
2022-08-17T15:58:05.406Z,12.50
2022-08-17T16:00:16.222Z,12.50
2022-08-17T16:03:14.688Z,12.67
2022-08-17T16:04:57.443Z,11.80
2022-08-17T16:07:06.227Z,12.47
2022-08-17T16:09:15.159Z,12.77
2022-08-17T16:11:23.889Z,12.40
2022-08-17T16:13:32.775Z,12.50
2022-08-17T16:15:41.342Z,12.37
2022-08-17T16:17:52.577Z,12.50
2022-08-17T16:20:02.781Z,13.30
2022-08-17T16:22:12.460Z,13.30
2022-08-17T16:24:20.903Z,12.37
2022-08-17T16:26:30.399Z,14.17
2022-08-17T16:28:40.878Z,13.23
2022-08-17T16:30:49.401Z,12.90
2022-08-17T16:32:58.899Z,12.87
2022-08-17T16:35:11.989Z,13.60
2022-08-17T16:37:20.548Z,12.87
2022-08-17T16:39:30.860Z,12.73
2022-08-17T16:41:45.668Z,12.37
2022-08-17T16:43:54.130Z,13.43
2022-08-17T16:46:02.781Z,12.73
2022-08-17T16:48:11.907Z,13.93
2022-08-17T16:50:23.178Z,13.37
2022-08-17T16:52:33.609Z,13.23
2022-08-17T16:54:44.249Z,12.57
2022-08-17T16:56:53.280Z,11.80
2022-08-17T16:59:30.009Z,12.87
2022-08-17T17:01:31.039Z,14.00
2022-08-17T17:03:43.950Z,13.43
2022-08-17T17:06:03.837Z,13.00
2022-08-17T17:08:16.050Z,13.20
2022-08-17T17:10:26.454Z,12.93
2022-08-17T17:13:01.429Z,12.03
2022-08-17T17:15:03.720Z,13.53
2022-08-17T17:17:14.994Z,12.43
2022-08-17T17:19:35.057Z,13.37
2022-08-17T17:21:49.322Z,12.77
2022-08-17T17:23:59.769Z,12.93
2022-08-17T17:26:13.557Z,13.43
2022-08-17T17:28:25.074Z,13.70
2022-08-17T17:30:37.122Z,13.30
2022-08-17T17:32:47.994Z,12.93
2022-08-17T17:34:58.784Z,13.10
2022-08-17T17:37:12.412Z,13.30
2022-08-17T17:39:24.913Z,13.37
2022-08-17T17:41:35.524Z,14.00
2022-08-17T17:43:44.251Z,13.40
2022-08-17T17:45:54.875Z,14.37
2022-08-17T17:48:03.568Z,14.23
2022-08-17T17:50:12.478Z,13.50
2022-08-17T17:52:26.100Z,13.87
2022-08-17T17:54:50.885Z,14.20
2022-08-17T17:57:02.093Z,14.03
2022-08-17T17:59:14.093Z,14.20
2022-08-17T18:01:27.434Z,14.13
2022-08-17T18:03:42.449Z,15.27
2022-08-17T18:05:56.711Z,15.27
2022-08-17T18:08:10.983Z,15.63
2022-08-17T18:10:30.265Z,14.83
2022-08-17T18:12:43.764Z,15.20
2022-08-17T18:15:01.190Z,17.50
2022-08-17T18:17:09.698Z,16.20
2022-08-17T18:19:20.825Z,15.30
2022-08-17T18:21:34.393Z,16.43
2022-08-17T18:23:51.004Z,18.83
2022-08-17T18:26:01.336Z,17.50
2022-08-17T18:28:10.505Z,17.03
2022-08-17T18:30:27.356Z,16.87
2022-08-17T18:32:37.093Z,16.73
2022-08-17T18:34:48.041Z,16.90
2022-08-17T18:36:57.199Z,18.10
2022-08-17T18:39:16.115Z,18.03
2022-08-17T18:41:30.452Z,16.27
2022-08-17T18:43:43.929Z,17.17
2022-08-17T18:46:28.417Z,17.73
2022-08-17T18:48:51.162Z,20.03
2022-08-17T18:51:00.702Z,18.57
2022-08-17T18:53:34.002Z,17.50
2022-08-17T18:55:44.287Z,18.63
2022-08-17T18:57:54.485Z,18.63
2022-08-17T19:00:03.171Z,19.17
2022-08-17T19:02:43.340Z,19.20
2022-08-17T19:05:00.601Z,19.33
2022-08-17T19:07:12.274Z,19.17
2022-08-17T19:09:32.362Z,19.60
2022-08-17T19:11:42.307Z,20.23
2022-08-17T19:13:54.381Z,19.83
2022-08-17T19:16:14.262Z,19.37
2022-08-17T19:18:25.823Z,19.50
2022-08-17T19:20:37.693Z,19.03
2022-08-17T19:22:56.616Z,19.97
2022-08-17T19:25:16.147Z,19.60
2022-08-17T19:27:34.671Z,20.13
2022-08-17T19:29:53.975Z,19.67
2022-08-17T19:32:02.666Z,20.17
2022-08-17T19:34:12.038Z,20.30
2022-08-17T19:36:30.459Z,21.87
2022-08-17T19:38:43.250Z,20.83
2022-08-17T19:40:59.212Z,21.70
2022-08-17T19:43:16.571Z,20.27
2022-08-17T19:45:32.727Z,20.93
2022-08-17T19:47:55.173Z,22.03
2022-08-17T19:50:10.369Z,20.73
2022-08-17T19:52:24.704Z,22.17
2022-08-17T19:54:36.329Z,21.83
2022-08-17T19:56:49.022Z,22.13
2022-08-17T19:59:02.230Z,23.07
2022-08-17T20:01:13.629Z,22.27
2022-08-17T20:03:24.915Z,22.53
2022-08-17T20:05:54.684Z,22.53
2022-08-17T20:08:06.796Z,21.83
2022-08-17T20:10:18.156Z,21.87
2022-08-17T20:12:29.553Z,22.63
2022-08-17T20:14:53.563Z,21.90
2022-08-17T20:17:04.487Z,22.17
2022-08-17T20:19:18.990Z,22.07
2022-08-17T20:21:30.245Z,22.40
2022-08-17T20:23:42.521Z,22.97
2022-08-17T20:25:55.494Z,23.10
2022-08-17T20:28:07.039Z,24.30
2022-08-17T20:30:33.612Z,21.50
2022-08-17T20:32:52.638Z,21.67
2022-08-17T20:35:10.378Z,23.43
2022-08-17T20:37:29.921Z,24.23
2022-08-17T20:39:41.256Z,23.97
2022-08-17T20:42:05.647Z,24.10
2022-08-17T20:44:26.751Z,25.10
2022-08-17T20:46:46.825Z,23.73
2022-08-17T20:48:57.736Z,25.37
2022-08-17T20:51:27.352Z,24.93
2022-08-17T20:53:54.618Z,25.30
2022-08-17T20:56:03.102Z,24.97
2022-08-17T20:58:31.151Z,24.23
2022-08-17T21:00:45.031Z,24.27
2022-08-17T21:03:15.270Z,23.80
2022-08-17T21:05:34.377Z,24.97
2022-08-17T21:07:54.115Z,23.60
2022-08-17T21:10:13.927Z,25.30
2022-08-17T21:12:37.296Z,23.40
2022-08-17T21:14:59.779Z,24.33
2022-08-17T21:17:29.658Z,24.67
2022-08-17T21:20:09.823Z,25.73
2022-08-17T21:22:20.878Z,25.60
2022-08-17T21:24:34.713Z,24.67
2022-08-17T21:26:50.669Z,26.80
2022-08-17T21:29:31.086Z,25.57
2022-08-17T21:31:38.490Z,25.97
2022-08-17T21:34:07.438Z,24.90
2022-08-17T21:36:28.162Z,25.23
2022-08-17T21:38:38.182Z,25.23
2022-08-17T21:40:50.098Z,25.80
2022-08-17T21:43:00.751Z,25.50
2022-08-17T21:45:11.628Z,28.50
2022-08-17T21:47:24.262Z,28.07
2022-08-17T21:49:37.877Z,28.10
2022-08-17T21:51:50.025Z,27.10
2022-08-17T21:54:00.091Z,27.47
2022-08-17T21:56:09.083Z,27.97
2022-08-17T21:58:24.542Z,27.10
2022-08-17T22:00:33.905Z,28.87
2022-08-17T22:02:42.981Z,27.30
2022-08-17T22:04:58.645Z,28.53
2022-08-17T22:07:10.016Z,27.87
2022-08-17T22:09:22.391Z,28.17
2022-08-17T22:11:31.611Z,27.47
2022-08-17T22:13:40.120Z,27.80
2022-08-17T22:15:50.454Z,28.03
2022-08-17T22:18:02.182Z,26.37
2022-08-17T22:20:14.539Z,26.60
2022-08-17T22:22:27.473Z,26.37
2022-08-17T22:24:34.935Z,25.67
2022-08-17T22:27:00.812Z,26.67
2022-08-17T22:29:30.173Z,25.17
2022-08-17T22:31:57.038Z,26.00
2022-08-17T22:34:12.359Z,24.83
2022-08-17T22:36:29.060Z,25.07
2022-08-17T22:38:39.502Z,25.67
2022-08-17T22:40:50.797Z,27.93
2022-08-17T22:43:02.462Z,26.67
2022-08-17T22:45:11.731Z,25.13
2022-08-17T22:47:32.487Z,25.83
2022-08-17T22:49:53.382Z,24.03
2022-08-17T22:52:20.202Z,23.87
2022-08-17T22:54:48.368Z,23.97
2022-08-17T22:57:18.749Z,23.93
2022-08-17T22:59:36.630Z,24.03
2022-08-17T23:01:46.616Z,24.60
2022-08-17T23:03:56.344Z,26.73
2022-08-17T23:06:06.908Z,27.27
2022-08-17T23:08:15.531Z,25.97
2022-08-17T23:10:25.528Z,26.27
2022-08-17T23:12:39.695Z,27.83
2022-08-17T23:14:51.396Z,24.57
2022-08-17T23:17:00.712Z,24.70
2022-08-17T23:19:09.945Z,23.17
2022-08-17T23:21:27.116Z,27.03
2022-08-17T23:23:37.119Z,26.30
2022-08-17T23:25:47.360Z,26.00
2022-08-17T23:27:55.970Z,25.47
2022-08-17T23:30:04.601Z,25.23
2022-08-17T23:32:14.829Z,27.10
2022-08-17T23:34:23.852Z,24.77
2022-08-17T23:36:32.485Z,25.73
2022-08-17T23:38:44.506Z,25.67
2022-08-17T23:40:54.427Z,25.77
2022-08-17T23:43:06.000Z,25.70
2022-08-17T23:45:33.282Z,25.60
2022-08-17T23:47:42.357Z,23.60
2022-08-17T23:49:54.210Z,24.43
2022-08-17T23:52:12.627Z,25.40
2022-08-17T23:54:24.837Z,25.73
2022-08-17T23:56:41.832Z,25.53
2022-08-17T23:58:50.290Z,24.13
